Time;durP1;ratioP1;P1;durP2;ratioP2;P2;SDS_P1;SDS_P2;PMS_P1;PMS_P2;Temp;Humidity;BMP_temperature;BMP_pressure;BME280_temperature;BME280_humidity;BME280_pressure;Samples;Min_cycle;Max_cycle;Signal;HPM_P1;HPM_P2
2021/05/15 00:02:20;;;;;;;5.10;4.30;;;8.50;99.90;;;;;;5049866;28;20045;-70
2021/05/15 00:04:46;;;;;;;4.43;3.30;;;8.40;99.90;;;;;;5055767;28;20412;-70
2021/05/15 00:07:12;;;;;;;5.80;3.88;;;8.30;99.90;;;;;;5042935;28;20053;-70
2021/05/15 00:09:38;;;;;;;4.75;3.85;;;8.20;99.90;;;;;;5045768;28;20045;-70
2021/05/15 00:12:05;;;;;;;4.90;3.90;;;8.10;99.90;;;;;;5055653;28;20048;-70
2021/05/15 00:14:31;;;;;;;4.07;3.67;;;8.10;99.90;;;;;;5055358;28;20045;-71
2021/05/15 00:16:57;;;;;;;4.70;3.88;;;8.20;99.90;;;;;;5041576;28;20044;-70
2021/05/15 00:19:24;;;;;;;7.07;4.28;;;8.30;99.90;;;;;;5030681;28;20041;-71
2021/05/15 00:21:50;;;;;;;5.13;4.20;;;8.20;99.90;;;;;;5036469;28;20052;-71
2021/05/15 00:24:16;;;;;;;4.70;3.88;;;8.30;99.90;;;;;;5036536;28;20048;-71
2021/05/15 00:26:42;;;;;;;3.72;3.28;;;8.30;99.90;;;;;;5035343;28;20057;-71
2021/05/15 00:29:09;;;;;;;3.50;2.95;;;8.30;99.90;;;;;;5048665;28;20048;-71
2021/05/15 00:31:36;;;;;;;5.82;3.85;;;8.20;99.90;;;;;;5046054;28;20055;-70
2021/05/15 00:34:02;;;;;;;6.25;2.70;;;8.10;99.90;;;;;;5053540;28;20483;-71
2021/05/15 00:36:29;;;;;;;4.82;2.95;;;8.20;99.90;;;;;;5043869;28;20037;-70
2021/05/15 00:38:55;;;;;;;4.47;2.88;;;8.10;99.90;;;;;;5034709;28;20068;-70
2021/05/15 00:41:21;;;;;;;6.20;3.88;;;7.90;99.90;;;;;;5035192;28;20050;-70
2021/05/15 00:44:10;;;;;;;6.45;3.42;;;7.90;99.90;;;;;;5035344;28;20041;-71
2021/05/15 00:46:34;;;;;;;4.53;3.42;;;8.00;99.90;;;;;;5049584;28;20040;-70
2021/05/15 00:49:00;;;;;;;4.97;3.00;;;7.90;99.90;;;;;;5054668;28;20048;-70
2021/05/15 00:51:26;;;;;;;4.93;3.38;;;7.80;99.90;;;;;;5042700;28;20053;-72
2021/05/15 00:53:53;;;;;;;4.05;3.05;;;7.70;99.90;;;;;;5053055;28;20045;-70
2021/05/15 00:56:19;;;;;;;4.30;3.37;;;7.60;99.90;;;;;;5046473;28;20627;-70
2021/05/15 00:58:47;;;;;;;4.80;3.45;;;7.60;99.90;;;;;;5035121;28;20056;-70
2021/05/15 01:01:13;;;;;;;7.63;3.17;;;7.60;99.90;;;;;;5046522;28;20041;-70
2021/05/15 01:03:39;;;;;;;4.85;3.42;;;7.60;99.90;;;;;;5051484;28;20404;-70
2021/05/15 01:06:06;;;;;;;4.13;2.80;;;7.60;99.90;;;;;;5037769;28;20061;-71
2021/05/15 01:08:32;;;;;;;4.63;3.23;;;7.50;99.90;;;;;;5035024;28;20053;-71
2021/05/15 01:10:59;;;;;;;5.07;2.85;;;7.40;99.90;;;;;;5037248;28;20038;-71
2021/05/15 01:13:31;;;;;;;6.00;4.43;;;7.40;99.90;;;;;;5054491;28;20501;-71
2021/05/15 01:15:57;;;;;;;3.65;3.28;;;7.40;99.90;;;;;;5045514;28;20045;-70
2021/05/15 01:18:25;;;;;;;6.30;4.35;;;7.40;99.90;;;;;;5041097;28;20099;-71
2021/05/15 01:20:51;;;;;;;5.15;3.72;;;7.30;99.90;;;;;;5034294;28;20061;-71
2021/05/15 01:23:18;;;;;;;4.32;3.08;;;7.30;99.90;;;;;;5034511;28;20049;-70
2021/05/15 01:25:44;;;;;;;6.00;2.83;;;7.20;99.90;;;;;;5046533;28;20056;-70
2021/05/15 01:28:10;;;;;;;4.97;3.92;;;7.20;99.90;;;;;;5050694;28;20039;-71
2021/05/15 01:30:36;;;;;;;6.30;4.10;;;7.20;99.90;;;;;;5033952;28;20057;-70
2021/05/15 01:33:02;;;;;;;4.28;3.70;;;7.10;99.90;;;;;;5041272;28;20046;-71
2021/05/15 01:35:29;;;;;;;5.47;3.40;;;7.10;99.90;;;;;;5046490;28;20038;-71
2021/05/15 01:37:56;;;;;;;5.15;3.85;;;7.00;99.90;;;;;;5053623;28;20114;-71
2021/05/15 01:40:23;;;;;;;5.93;3.77;;;7.00;99.90;;;;;;5040138;28;20049;-71
2021/05/15 01:42:49;;;;;;;5.47;3.63;;;6.80;99.90;;;;;;5033785;28;20045;-70
2021/05/15 01:45:15;;;;;;;4.87;3.57;;;6.80;99.90;;;;;;5034004;28;20448;-71
2021/05/15 01:47:42;;;;;;;5.70;3.70;;;6.80;99.90;;;;;;5034237;28;20045;-71
2021/05/15 01:50:12;;;;;;;3.30;3.00;;;6.80;99.90;;;;;;5037586;28;20041;-70
2021/05/15 01:52:39;;;;;;;5.40;4.40;;;6.70;99.90;;;;;;5035105;28;20562;-70
2021/05/15 01:55:12;;;;;;;5.45;4.07;;;6.80;99.90;;;;;;5034169;28;20045;-70
2021/05/15 01:57:39;;;;;;;5.53;3.80;;;6.80;99.90;;;;;;5037001;28;20484;-71
2021/05/15 02:00:06;;;;;;;8.97;6.00;;;6.80;99.90;;;;;;5033866;28;20045;-70
2021/05/15 02:02:32;;;;;;;5.10;3.50;;;6.90;99.90;;;;;;5034772;28;20056;-70
2021/05/15 02:04:58;;;;;;;4.77;3.67;;;6.80;99.90;;;;;;5053769;28;20045;-71
2021/05/15 02:07:24;;;;;;;5.00;3.40;;;6.80;99.90;;;;;;5038602;28;20535;-70
2021/05/15 02:09:50;;;;;;;5.27;4.33;;;6.80;99.90;;;;;;5033308;28;20045;-71
2021/05/15 02:12:16;;;;;;;7.57;3.50;;;6.80;99.90;;;;;;5033706;28;20041;-70
2021/05/15 02:14:43;;;;;;;5.37;4.47;;;6.80;99.90;;;;;;5033759;28;20096;-70
2021/05/15 02:17:09;;;;;;;4.73;3.63;;;6.70;99.90;;;;;;5039241;28;20048;-70
2021/05/15 02:19:36;;;;;;;5.03;3.93;;;6.80;99.90;;;;;;5052872;28;20497;-71
2021/05/15 02:22:02;;;;;;;6.57;4.18;;;6.70;99.90;;;;;;5053030;28;20055;-70
2021/05/15 02:24:28;;;;;;;8.80;3.73;;;6.60;99.90;;;;;;5053080;28;20049;-70
2021/05/15 02:26:54;;;;;;;5.60;4.57;;;6.40;99.90;;;;;;5034055;28;20049;-70
2021/05/15 02:29:20;;;;;;;3.90;3.23;;;6.30;99.90;;;;;;5034372;28;20049;-70
2021/05/15 02:31:47;;;;;;;11.27;4.60;;;6.30;99.90;;;;;;5037368;28;20060;-69
2021/05/15 02:34:13;;;;;;;5.60;4.00;;;6.30;99.90;;;;;;5043303;28;20413;-70
2021/05/15 02:36:39;;;;;;;5.97;4.33;;;6.20;99.90;;;;;;5022872;28;20064;-71
2021/05/15 02:39:05;;;;;;;7.37;4.17;;;6.20;99.90;;;;;;5032887;28;20513;-71
2021/05/15 02:41:31;;;;;;;4.47;3.80;;;6.20;99.90;;;;;;5038125;28;20115;-71
2021/05/15 02:43:58;;;;;;;4.50;3.93;;;6.10;99.90;;;;;;5046862;28;20071;-70
2021/05/15 02:46:24;;;;;;;7.90;4.90;;;6.10;99.90;;;;;;5051179;28;20075;-70
2021/05/15 02:48:51;;;;;;;6.03;4.57;;;6.00;99.90;;;;;;5033012;28;20107;-70
2021/05/15 02:51:17;;;;;;;5.93;5.10;;;6.00;99.90;;;;;;5034949;28;20489;-71
2021/05/15 02:53:43;;;;;;;5.77;4.73;;;5.90;99.90;;;;;;5037380;28;20045;-70
2021/05/15 02:56:09;;;;;;;7.13;4.43;;;5.80;99.90;;;;;;5033225;28;20052;-70
2021/05/15 02:58:35;;;;;;;5.40;4.10;;;5.90;99.90;;;;;;5032697;28;20045;-71
2021/05/15 03:01:01;;;;;;;8.03;5.23;;;5.90;99.90;;;;;;5040634;28;20053;-71
2021/05/15 03:03:27;;;;;;;5.20;4.13;;;5.90;99.90;;;;;;5033094;28;20094;-71
2021/05/15 03:05:54;;;;;;;7.03;4.30;;;6.00;99.90;;;;;;5032613;28;20065;-70
2021/05/15 03:08:20;;;;;;;5.57;3.97;;;5.90;99.90;;;;;;5047639;28;20420;-70
2021/05/15 03:10:46;;;;;;;6.80;4.67;;;5.80;99.90;;;;;;5032479;28;20045;-71
2021/05/15 03:13:12;;;;;;;7.03;4.23;;;5.80;99.90;;;;;;5032854;28;20045;-71
2021/05/15 03:15:38;;;;;;;5.10;4.00;;;5.80;99.90;;;;;;5032419;28;20046;-70
2021/05/15 03:18:05;;;;;;;8.27;5.80;;;5.80;99.90;;;;;;5032242;28;20481;-71
2021/05/15 03:20:31;;;;;;;8.63;4.67;;;5.80;99.90;;;;;;5032586;28;20405;-71
2021/05/15 03:22:58;;;;;;;6.43;3.83;;;5.70;99.90;;;;;;5032335;28;20041;-74
2021/05/15 03:25:24;;;;;;;7.13;5.63;;;5.80;99.90;;;;;;5032749;28;20049;-72
2021/05/15 03:27:50;;;;;;;4.70;3.50;;;5.90;99.90;;;;;;5032714;28;20115;-70
2021/05/15 03:30:17;;;;;;;5.27;4.07;;;5.80;99.90;;;;;;5048271;28;20041;-70
2021/05/15 03:32:44;;;;;;;9.10;4.93;;;5.80;99.90;;;;;;5040414;28;20068;-70
2021/05/15 03:35:12;;;;;;;5.87;4.57;;;6.00;99.90;;;;;;5044736;28;20047;-71
2021/05/15 03:37:38;;;;;;;5.17;4.67;;;6.10;99.90;;;;;;5041838;28;20045;-71
2021/05/15 03:40:07;;;;;;;6.63;4.77;;;6.10;99.90;;;;;;5036776;28;20436;-70
2021/05/15 03:42:33;;;;;;;5.67;4.57;;;5.90;99.90;;;;;;5036034;28;20493;-70
2021/05/15 03:44:59;;;;;;;7.93;5.07;;;6.00;99.90;;;;;;5036403;28;20041;-70
2021/05/15 03:47:26;;;;;;;5.37;4.53;;;5.90;99.90;;;;;;5035611;28;20050;-70
2021/05/15 03:49:52;;;;;;;6.13;3.93;;;5.90;99.90;;;;;;5052075;28;20523;-71
2021/05/15 03:52:18;;;;;;;5.70;3.97;;;5.80;99.90;;;;;;5041460;28;20049;-70
2021/05/15 03:54:44;;;;;;;5.63;4.33;;;5.80;99.90;;;;;;5047841;28;20099;-70
2021/05/15 03:57:11;;;;;;;5.33;4.33;;;6.00;99.90;;;;;;5035749;28;20052;-70
2021/05/15 03:59:38;;;;;;;8.60;5.20;;;6.00;99.90;;;;;;5035844;28;20049;-71
2021/05/15 04:02:04;;;;;;;9.10;4.27;;;6.10;99.90;;;;;;5035800;28;20053;-70
2021/05/15 04:04:31;;;;;;;5.17;3.70;;;6.20;99.90;;;;;;5036370;28;20473;-71
2021/05/15 04:06:57;;;;;;;7.03;4.53;;;6.30;99.90;;;;;;5045248;28;20145;-71
2021/05/15 04:09:23;;;;;;;5.17;4.40;;;6.40;99.90;;;;;;5055238;28;20045;-71
2021/05/15 04:11:49;;;;;;;8.37;4.93;;;6.50;99.90;;;;;;5050136;28;20041;-70
2021/05/15 04:14:28;;;;;;;5.13;3.97;;;6.60;99.90;;;;;;5055536;28;20471;-71
2021/05/15 04:17:13;;;;;;;5.63;4.97;;;6.60;99.90;;;;;;5055393;28;20063;-70
2021/05/15 04:19:39;;;;;;;5.67;4.50;;;6.70;99.90;;;;;;5021572;28;20054;-71
2021/05/15 04:22:05;;;;;;;8.43;4.77;;;6.90;99.90;;;;;;5035492;28;20472;-71
2021/05/15 04:24:31;;;;;;;8.57;4.97;;;6.90;99.90;;;;;;5035430;28;20612;-71
2021/05/15 04:26:59;;;;;;;6.13;4.67;;;7.10;99.90;;;;;;5035130;28;20619;-70
2021/05/15 04:29:27;;;;;;;7.00;4.65;;;7.40;99.90;;;;;;5035417;28;20050;-71
2021/05/15 04:31:54;;;;;;;5.90;4.13;;;7.40;99.90;;;;;;5037484;28;20493;-71
2021/05/15 04:34:21;;;;;;;6.60;4.75;;;7.50;99.90;;;;;;5046341;28;20045;-70
2021/05/15 04:36:47;;;;;;;6.35;5.00;;;7.60;99.90;;;;;;5054480;28;20507;-70
2021/05/15 04:39:13;;;;;;;5.25;4.75;;;7.60;99.90;;;;;;5040596;28;20053;-71
2021/05/15 04:41:39;;;;;;;5.60;3.60;;;7.70;99.90;;;;;;5053262;28;20041;-70
2021/05/15 04:44:06;;;;;;;5.47;3.90;;;7.80;99.90;;;;;;5040029;28;20087;-71
2021/05/15 04:46:33;;;;;;;5.70;4.95;;;7.90;99.90;;;;;;5035414;28;20049;-70
2021/05/15 04:48:59;;;;;;;5.30;4.20;;;8.10;99.90;;;;;;5039482;28;20480;-71
2021/05/15 04:51:25;;;;;;;4.40;3.10;;;8.20;99.90;;;;;;5046393;28;20048;-70
2021/05/15 04:53:51;;;;;;;3.83;3.40;;;8.30;99.90;;;;;;5035595;28;20456;-71
2021/05/15 04:56:18;;;;;;;5.05;3.20;;;8.40;99.90;;;;;;5051898;28;20045;-70
2021/05/15 04:58:44;;;;;;;4.25;3.85;;;8.50;99.90;;;;;;5048193;28;20092;-70
2021/05/15 05:01:10;;;;;;;5.35;3.22;;;8.60;99.90;;;;;;5043793;28;20037;-71
2021/05/15 05:03:37;;;;;;;3.72;3.05;;;8.60;99.90;;;;;;5042073;28;20107;-71
2021/05/15 05:06:04;;;;;;;3.83;3.38;;;8.70;99.90;;;;;;5035886;28;20053;-71
2021/05/15 05:08:30;;;;;;;5.38;3.40;;;8.70;99.90;;;;;;5035729;28;20072;-70
2021/05/15 05:10:56;;;;;;;5.38;3.13;;;8.80;99.90;;;;;;5049782;28;20499;-71
2021/05/15 05:13:22;;;;;;;4.53;3.25;;;8.90;99.90;;;;;;5035588;28;20042;-71
2021/05/15 05:15:49;;;;;;;4.57;3.20;;;8.90;99.90;;;;;;5035222;28;20079;-71
2021/05/15 05:18:15;;;;;;;4.45;3.35;;;8.90;99.90;;;;;;5034171;28;20075;-70
2021/05/15 05:20:42;;;;;;;3.25;2.95;;;9.00;99.90;;;;;;5034356;28;20111;-71
2021/05/15 05:23:08;;;;;;;6.25;3.88;;;9.10;99.90;;;;;;5034079;28;20052;-70
2021/05/15 05:25:34;;;;;;;4.65;2.75;;;9.30;99.90;;;;;;5034138;28;20045;-71
2021/05/15 05:28:01;;;;;;;3.97;2.80;;;9.40;99.90;;;;;;5033687;28;20046;-71
2021/05/15 05:30:27;;;;;;;3.22;2.47;;;9.50;99.90;;;;;;5036744;28;20044;-71
2021/05/15 05:32:54;;;;;;;3.08;2.20;;;9.60;99.90;;;;;;5034409;28;20466;-70
2021/05/15 05:35:20;;;;;;;2.95;2.65;;;9.70;99.90;;;;;;5034254;28;20048;-70
2021/05/15 05:37:48;;;;;;;3.28;2.90;;;9.80;99.90;;;;;;5033946;28;20095;-71
2021/05/15 05:40:16;;;;;;;3.35;2.45;;;10.00;99.90;;;;;;5033868;28;20409;-70
2021/05/15 05:42:43;;;;;;;3.47;2.33;;;10.20;99.90;;;;;;5034281;28;20046;-70
2021/05/15 05:45:12;;;;;;;3.05;2.78;;;10.20;99.90;;;;;;5048370;28;20040;-70
2021/05/15 05:47:38;;;;;;;4.15;2.55;;;10.10;99.90;;;;;;5046401;28;20049;-72
2021/05/15 05:50:06;;;;;;;3.95;2.75;;;10.10;99.90;;;;;;5034126;28;20041;-70
2021/05/15 05:52:33;;;;;;;3.70;2.45;;;10.20;99.90;;;;;;5034157;28;20084;-71
2021/05/15 05:55:00;;;;;;;2.40;2.22;;;10.30;99.90;;;;;;5041944;28;20425;-71
2021/05/15 05:57:26;;;;;;;3.38;2.67;;;10.30;99.90;;;;;;5014822;28;20050;-70
2021/05/15 05:59:52;;;;;;;4.65;3.90;;;10.50;99.90;;;;;;5050925;28;20543;-71
2021/05/15 06:02:18;;;;;;;2.60;2.33;;;10.80;99.90;;;;;;5053665;28;20049;-70
2021/05/15 06:04:44;;;;;;;2.35;2.15;;;11.00;99.90;;;;;;5043752;28;20045;-70
2021/05/15 06:07:10;;;;;;;3.00;1.95;;;11.10;99.90;;;;;;5038283;28;20498;-71
2021/05/15 06:09:36;;;;;;;2.60;2.40;;;11.20;99.90;;;;;;5033492;28;20053;-71
2021/05/15 06:12:04;;;;;;;2.65;1.88;;;11.40;99.90;;;;;;5033602;28;20049;-70
2021/05/15 06:14:30;;;;;;;2.67;2.13;;;11.80;99.90;;;;;;5033802;28;20482;-70
2021/05/15 06:16:56;;;;;;;2.72;1.83;;;12.20;99.90;;;;;;5033241;28;20126;-70
2021/05/15 06:19:22;;;;;;;2.30;1.92;;;12.70;99.90;;;;;;5033270;28;20038;-69
2021/05/15 06:21:48;;;;;;;2.38;2.17;;;13.10;99.90;;;;;;5033606;28;20543;-70
2021/05/15 06:24:14;;;;;;;4.13;2.90;;;13.60;99.90;;;;;;5033465;28;20052;-70
2021/05/15 06:26:40;;;;;;;6.03;2.95;;;13.80;99.90;;;;;;5051239;28;20106;-71
2021/05/15 06:29:07;;;;;;;4.28;3.10;;;14.00;99.90;;;;;;5032796;28;20049;-70
2021/05/15 06:31:33;;;;;;;3.38;3.00;;;14.10;99.90;;;;;;5033837;28;20045;-71
2021/05/15 06:33:59;;;;;;;5.45;2.90;;;14.20;99.90;;;;;;5033159;28;20037;-71
2021/05/15 06:36:25;;;;;;;5.07;3.40;;;14.00;99.90;;;;;;5038231;28;20072;-70
2021/05/15 06:38:52;;;;;;;4.05;3.03;;;13.60;99.90;;;;;;5032912;28;20417;-71
2021/05/15 06:41:18;;;;;;;5.85;3.53;;;13.50;99.90;;;;;;5039299;28;20041;-70
2021/05/15 06:43:44;;;;;;;4.03;3.17;;;13.30;99.90;;;;;;5037832;28;20517;-71
2021/05/15 06:46:11;;;;;;;3.10;2.80;;;13.50;99.90;;;;;;5041751;28;20042;-71
2021/05/15 06:48:37;;;;;;;4.28;3.97;;;13.60;99.90;;;;;;5037175;28;20524;-71
2021/05/15 06:51:03;;;;;;;4.82;3.63;;;13.70;99.90;;;;;;5049129;28;20118;-71
2021/05/15 06:53:29;;;;;;;6.50;3.38;;;14.20;99.90;;;;;;5052376;28;20055;-71
2021/05/15 06:55:55;;;;;;;5.53;2.85;;;14.90;99.90;;;;;;5040430;28;20228;-73
2021/05/15 06:58:21;;;;;;;3.00;2.70;;;15.40;99.90;;;;;;5032614;28;20045;-71
2021/05/15 07:00:47;;;;;;;3.33;3.03;;;15.60;99.90;;;;;;5043888;28;20045;-71
2021/05/15 07:03:14;;;;;;;5.20;3.20;;;16.20;99.90;;;;;;5052458;28;20436;-72
2021/05/15 07:05:40;;;;;;;5.78;3.30;;;16.70;99.90;;;;;;5041668;28;20045;-71
2021/05/15 07:08:06;;;;;;;5.18;3.50;;;17.20;99.90;;;;;;5032284;28;20056;-71
2021/05/15 07:10:32;;;;;;;5.07;3.40;;;17.60;99.90;;;;;;5032226;28;20042;-74
2021/05/15 07:12:59;;;;;;;2.55;2.10;;;17.70;99.90;;;;;;5035041;28;20046;-73
2021/05/15 07:15:25;;;;;;;5.97;4.68;;;18.00;99.90;;;;;;5044363;28;20399;-74
2021/05/15 07:17:51;;;;;;;4.13;3.45;;;17.70;99.90;;;;;;5037512;28;20060;-73
2021/05/15 07:20:18;;;;;;;5.95;4.18;;;17.50;99.90;;;;;;5036331;28;20390;-73
2021/05/15 07:22:45;;;;;;;7.70;5.63;;;17.60;99.90;;;;;;5043580;28;20045;-75
2021/05/15 07:25:12;;;;;;;4.72;3.60;;;17.70;99.90;;;;;;5036710;28;20088;-74
2021/05/15 07:27:39;;;;;;;3.95;3.58;;;17.00;99.90;;;;;;5036397;28;20140;-74
2021/05/15 07:30:07;;;;;;;3.60;3.30;;;17.00;99.90;;;;;;5037303;28;20050;-74
2021/05/15 07:32:34;;;;;;;4.03;2.95;;;17.60;99.90;;;;;;5039686;28;20051;-74
2021/05/15 07:35:00;;;;;;;5.38;3.67;;;18.10;99.90;;;;;;5055140;28;20045;-72
2021/05/15 07:37:27;;;;;;;2.50;2.30;;;18.10;99.30;;;;;;5053563;28;20106;-70
2021/05/15 07:39:53;;;;;;;4.47;2.80;;;18.40;97.80;;;;;;5035240;28;20064;-73
2021/05/15 07:42:19;;;;;;;3.58;2.50;;;18.50;97.60;;;;;;5045808;28;20045;-74
2021/05/15 07:44:45;;;;;;;3.30;2.80;;;18.50;96.00;;;;;;5038537;28;20056;-76
2021/05/15 07:47:12;;;;;;;4.28;2.47;;;18.50;97.10;;;;;;5035991;28;20053;-74
2021/05/15 07:49:38;;;;;;;3.22;2.50;;;19.10;95.10;;;;;;5049005;28;20060;-70
2021/05/15 07:52:05;;;;;;;4.97;3.65;;;18.80;94.80;;;;;;5044234;28;20079;-71
2021/05/15 07:54:32;;;;;;;5.18;3.42;;;19.40;94.80;;;;;;5037330;28;20077;-72
2021/05/15 07:56:58;;;;;;;5.68;4.47;;;20.00;92.60;;;;;;5056916;28;20041;-72
2021/05/15 07:59:24;;;;;;;3.28;2.67;;;20.50;91.60;;;;;;5016740;28;20053;-72
2021/05/15 08:01:50;;;;;;;4.60;4.05;;;20.90;90.10;;;;;;5035306;28;20064;-72
2021/05/15 08:04:16;;;;;;;14.35;6.90;;;20.90;88.90;;;;;;5035557;28;20433;-72
2021/05/15 08:06:42;;;;;;;16.15;9.88;;;21.30;87.70;;;;;;5042707;28;20041;-72
2021/05/15 08:09:09;;;;;;;3.90;3.55;;;21.40;85.60;;;;;;5038873;28;20049;-72
2021/05/15 08:11:36;;;;;;;4.68;2.97;;;21.60;81.80;;;;;;5035166;28;20489;-75
2021/05/15 08:14:05;;;;;;;6.57;4.60;;;21.50;80.50;;;;;;5049443;28;20049;-76
2021/05/15 08:16:33;;;;;;;6.25;4.72;;;21.20;81.50;;;;;;5056470;28;20063;-72
2021/05/15 08:18:59;;;;;;;8.20;4.75;;;21.80;83.60;;;;;;5039074;28;20050;-75
2021/05/15 08:21:25;;;;;;;5.50;3.85;;;22.40;82.30;;;;;;5036178;28;20075;-72
2021/05/15 08:23:52;;;;;;;4.78;4.25;;;21.90;74.80;;;;;;5054873;28;20060;-73
2021/05/15 08:26:18;;;;;;;5.63;4.38;;;22.20;76.70;;;;;;5041772;28;20112;-72
2021/05/15 08:28:48;;;;;;;5.07;4.03;;;22.30;77.30;;;;;;5038580;28;20095;-73
2021/05/15 08:31:14;;;;;;;4.97;3.97;;;23.10;76.90;;;;;;5035393;28;20252;-77
2021/05/15 08:33:40;;;;;;;4.80;4.30;;;23.50;70.20;;;;;;5036330;28;20053;-73
2021/05/15 08:36:07;;;;;;;6.28;4.82;;;23.10;71.10;;;;;;5046134;28;20119;-73
2021/05/15 08:38:34;;;;;;;4.53;3.70;;;22.70;73.50;;;;;;5036513;28;20053;-73
2021/05/15 08:41:00;;;;;;;4.18;3.75;;;22.90;72.00;;;;;;5035409;28;20103;-76
2021/05/15 08:43:27;;;;;;;5.32;4.82;;;23.00;71.20;;;;;;5052894;28;20562;-72
2021/05/15 08:45:57;;;;;;;5.18;4.68;;;22.80;72.20;;;;;;5055485;28;20458;-77
2021/05/15 08:48:24;;;;;;;3.53;3.23;;;23.20;69.80;;;;;;5045028;28;20041;-75
2021/05/15 08:50:51;;;;;;;3.33;3.03;;;23.80;69.00;;;;;;5045940;28;20048;-73
2021/05/15 08:53:18;;;;;;;8.00;4.68;;;23.60;68.50;;;;;;5053899;28;20064;-72
2021/05/15 08:55:45;;;;;;;4.15;3.75;;;22.60;71.10;;;;;;5054498;28;20045;-76
2021/05/15 08:58:11;;;;;;;6.05;4.05;;;21.90;72.70;;;;;;5050171;28;20489;-74
2021/05/15 09:00:39;;;;;;;5.13;4.50;;;21.50;73.90;;;;;;5054454;28;20049;-74
2021/05/15 09:03:08;;;;;;;8.25;5.55;;;21.50;74.40;;;;;;5036581;28;20046;-75
2021/05/15 09:05:37;;;;;;;4.18;3.78;;;21.70;76.10;;;;;;5034419;28;20104;-75
2021/05/15 09:08:06;;;;;;;6.22;4.95;;;22.20;73.40;;;;;;5043825;28;20049;-73
2021/05/15 09:10:34;;;;;;;5.57;5.07;;;21.70;72.90;;;;;;5036484;28;20071;-73
2021/05/15 09:13:08;;;;;;;7.30;4.88;;;21.90;74.50;;;;;;5044527;28;20049;-73
2021/05/15 09:15:39;;;;;;;5.05;4.43;;;22.10;75.60;;;;;;5035496;28;20111;-73
2021/05/15 09:18:07;;;;;;;5.30;4.03;;;22.60;71.90;;;;;;5042348;28;20048;-73
2021/05/15 09:20:34;;;;;;;4.00;3.70;;;23.00;71.70;;;;;;5042582;28;20148;-73
2021/05/15 09:23:14;;;;;;;5.07;4.57;;;23.10;71.30;;;;;;5034803;28;20092;-76
2021/05/15 09:25:41;;;;;;;6.55;4.68;;;23.30;70.80;;;;;;5034625;28;20564;-72
2021/05/15 09:28:07;;;;;;;4.45;4.05;;;23.00;70.00;;;;;;5034718;28;20096;-72
2021/05/15 09:30:34;;;;;;;5.18;4.35;;;22.80;70.00;;;;;;5034774;28;20103;-72
2021/05/15 09:33:12;;;;;;;4.35;4.00;;;23.00;69.40;;;;;;5034540;28;20053;-73
2021/05/15 09:35:38;;;;;;;6.20;5.07;;;23.00;68.60;;;;;;5033526;28;20108;-72
2021/05/15 09:38:04;;;;;;;8.65;4.95;;;22.40;71.70;;;;;;5033112;28;20544;-72
2021/05/15 09:40:30;;;;;;;5.57;4.78;;;22.50;70.90;;;;;;5034112;28;20041;-72
2021/05/15 09:42:58;;;;;;;9.27;6.47;;;22.20;72.70;;;;;;5033891;28;20049;-72
2021/05/15 09:45:27;;;;;;;7.13;4.72;;;22.40;72.80;;;;;;5033779;28;20042;-72
2021/05/15 09:47:55;;;;;;;6.40;5.07;;;22.80;74.40;;;;;;5033747;28;20052;-71
2021/05/15 09:50:24;;;;;;;5.60;5.07;;;22.30;70.80;;;;;;5033503;28;20052;-72
2021/05/15 09:52:50;;;;;;;8.95;6.07;;;21.70;72.50;;;;;;5034282;28;20049;-73
2021/05/15 09:55:17;;;;;;;4.60;4.20;;;22.00;75.80;;;;;;5033709;28;20481;-73
2021/05/15 09:57:54;;;;;;;4.97;4.53;;;22.40;74.10;;;;;;5033632;28;20046;-72
2021/05/15 10:00:21;;;;;;;3.75;3.40;;;22.90;69.70;;;;;;5034124;28;20045;-73
2021/05/15 10:02:53;;;;;;;4.32;3.22;;;22.70;66.90;;;;;;5034276;28;20045;-72
2021/05/15 10:05:20;;;;;;;5.35;4.63;;;22.00;69.00;;;;;;5034126;28;20056;-73
2021/05/15 10:07:47;;;;;;;4.75;2.97;;;21.90;68.00;;;;;;5033906;28;20050;-73
2021/05/15 10:10:14;;;;;;;3.45;3.20;;;22.20;67.70;;;;;;5014476;28;20050;-73
2021/05/15 10:12:40;;;;;;;3.22;2.70;;;22.40;67.80;;;;;;5023772;28;20045;-73
2021/05/15 10:15:08;;;;;;;2.80;2.33;;;22.60;66.20;;;;;;5034078;28;20053;-72
2021/05/15 10:17:34;;;;;;;2.65;2.45;;;22.80;66.50;;;;;;5033448;28;20049;-72
2021/05/15 10:20:04;;;;;;;4.03;2.47;;;22.30;68.70;;;;;;5033662;28;20504;-72
2021/05/15 10:22:36;;;;;;;3.55;2.90;;;21.30;69.70;;;;;;5033719;28;20045;-73
2021/05/15 10:25:09;;;;;;;2.22;2.13;;;20.70;72.70;;;;;;5034110;28;20045;-72
2021/05/15 10:27:36;;;;;;;3.15;2.35;;;20.30;71.90;;;;;;5033827;28;20049;-73
2021/05/15 10:30:11;;;;;;;2.72;2.53;;;20.30;72.80;;;;;;5034189;28;20045;-73
2021/05/15 10:32:52;;;;;;;3.40;3.10;;;20.60;73.00;;;;;;5033771;28;20064;-74
2021/05/15 10:35:27;;;;;;;2.30;2.10;;;20.90;72.30;;;;;;5033349;28;20405;-72
2021/05/15 10:38:01;;;;;;;7.10;5.20;;;21.40;68.90;;;;;;5033814;28;20050;-73
2021/05/15 10:40:30;;;;;;;1.70;1.50;;;21.60;70.00;;;;;;5036440;28;20041;-72
2021/05/15 10:43:00;;;;;;;1.42;1.33;;;21.50;64.60;;;;;;5034190;28;20471;-73
2021/05/15 10:45:34;;;;;;;1.77;1.60;;;21.40;66.00;;;;;;5033720;28;20041;-72
2021/05/15 10:48:22;;;;;;;2.30;1.90;;;21.20;67.70;;;;;;5033544;28;20046;-72
2021/05/15 10:50:53;;;;;;;3.10;2.35;;;20.90;69.10;;;;;;5033588;28;20107;-72
2021/05/15 10:53:23;;;;;;;;;;;20.70;69.90;;;;;;5014665;28;20050;-73
2021/05/15 10:56:09;;;;;;;1.42;1.27;;;21.20;69.40;;;;;;5013658;28;20357;-72
2021/05/15 10:58:43;;;;;;;2.13;1.10;;;21.40;67.50;;;;;;5013914;28;20136;-73
2021/05/15 11:01:14;;;;;;;0.90;0.90;;;21.60;65.20;;;;;;5014574;28;20065;-73
2021/05/15 11:03:41;;;;;;;;;;;21.40;64.70;;;;;;5015474;28;20054;-72
2021/05/15 11:06:18;;;;;;;0.50;0.50;;;21.50;65.20;;;;;;5033435;28;19929;-73
2021/05/15 11:08:56;;;;;;;0.73;0.57;;;21.70;64.20;;;;;;5033314;28;20095;-72
2021/05/15 11:11:35;;;;;;;0.47;0.47;;;21.40;63.40;;;;;;5033834;28;20045;-73
2021/05/15 11:14:01;;;;;;;0.50;0.50;;;21.30;63.30;;;;;;5034075;28;20081;-72
2021/05/15 11:16:31;;;;;;;1.95;0.80;;;21.00;63.90;;;;;;5033154;28;20046;-72
2021/05/15 11:19:08;;;;;;;1.67;0.60;;;20.30;65.30;;;;;;5033335;28;20095;-72
2021/05/15 11:21:36;;;;;;;1.52;1.08;;;19.60;68.70;;;;;;5013747;28;20046;-73
2021/05/15 11:24:03;;;;;;;0.70;0.70;;;20.20;69.40;;;;;;5013721;28;20054;-73
2021/05/15 11:26:49;;;;;;;1.33;0.93;;;20.30;68.10;;;;;;5013713;28;20385;-73
2021/05/15 11:29:15;;;;;;;0.60;0.60;;;20.30;68.80;;;;;;5014234;28;20046;-73
2021/05/15 11:31:41;;;;;;;1.75;1.00;;;20.00;68.80;;;;;;5013697;28;20484;-72
2021/05/15 11:34:16;;;;;;;3.05;1.92;;;19.70;70.00;;;;;;5021943;28;20042;-72
2021/05/15 11:36:43;;;;;;;0.82;0.70;;;19.60;71.80;;;;;;5033031;28;20077;-73
2021/05/15 11:39:12;;;;;;;0.85;0.80;;;19.50;70.90;;;;;;5033004;28;20232;-72
2021/05/15 11:41:39;;;;;;;2.50;0.90;;;19.40;71.50;;;;;;5036578;28;20045;-72
2021/05/15 11:44:06;;;;;;;0.80;0.80;;;19.40;73.50;;;;;;5033048;28;20413;-73
2021/05/15 11:46:32;;;;;;;1.10;0.60;;;19.40;72.00;;;;;;5032851;28;20049;-73
2021/05/15 11:48:58;;;;;;;1.42;0.75;;;19.20;72.80;;;;;;5033155;28;20045;-73
2021/05/15 11:51:26;;;;;;;0.43;0.43;;;19.20;73.10;;;;;;5033328;28;20099;-73
2021/05/15 11:53:56;;;;;;;1.10;0.47;;;19.60;71.40;;;;;;5033568;28;20141;-73
2021/05/15 11:56:25;;;;;;;0.52;0.40;;;19.80;68.70;;;;;;5034179;28;20045;-72
2021/05/15 11:58:54;;;;;;;1.05;0.60;;;19.90;67.10;;;;;;5034522;28;20052;-73
2021/05/15 12:01:21;;;;;;;5.03;0.80;;;19.70;68.40;;;;;;5036458;28;20041;-73
2021/05/15 12:03:48;;;;;;;0.50;0.45;;;19.80;69.50;;;;;;5037153;28;20049;-74
2021/05/15 12:06:15;;;;;;;1.42;0.60;;;20.60;68.70;;;;;;5037111;28;20057;-73
2021/05/15 12:08:42;;;;;;;0.60;0.60;;;21.30;67.30;;;;;;5036638;28;20490;-72
2021/05/15 12:11:10;;;;;;;1.83;0.82;;;21.20;66.90;;;;;;5035256;28;20103;-73
2021/05/15 12:13:36;;;;;;;1.80;1.13;;;21.00;67.60;;;;;;5035476;28;20092;-77
2021/05/15 12:16:04;;;;;;;0.65;0.65;;;21.30;67.80;;;;;;5035812;28;20103;-73
2021/05/15 12:18:31;;;;;;;0.50;0.50;;;21.60;66.80;;;;;;5036037;28;20068;-73
2021/05/15 12:20:57;;;;;;;1.52;0.85;;;21.20;66.80;;;;;;5036924;28;20054;-72
2021/05/15 12:23:24;;;;;;;0.60;0.60;;;20.60;68.90;;;;;;5036727;28;20068;-72
2021/05/15 12:25:58;;;;;;;1.08;0.80;;;20.10;68.70;;;;;;5036274;28;20050;-72
2021/05/15 12:28:26;;;;;;;0.93;0.80;;;19.80;70.70;;;;;;5035762;28;20060;-73
2021/05/15 12:30:53;;;;;;;1.25;0.55;;;19.90;71.50;;;;;;5035882;28;20103;-72
2021/05/15 12:33:22;;;;;;;0.65;0.57;;;19.60;71.80;;;;;;5036240;28;20405;-73
2021/05/15 12:36:03;;;;;;;1.95;0.98;;;19.40;70.50;;;;;;5035825;28;20046;-72
2021/05/15 12:38:30;;;;;;;2.15;1.17;;;19.40;71.10;;;;;;5035791;28;20447;-73
2021/05/15 12:41:10;;;;;;;0.68;0.68;;;19.90;72.50;;;;;;5035956;28;20041;-72
2021/05/15 12:43:38;;;;;;;1.55;1.00;;;20.30;69.80;;;;;;5035725;28;20555;-72
2021/05/15 12:46:12;;;;;;;0.75;0.55;;;20.00;70.70;;;;;;5035570;28;20045;-71
2021/05/15 12:48:41;;;;;;;1.05;0.63;;;20.10;70.70;;;;;;5035899;28;20045;-72
2021/05/15 12:51:08;;;;;;;0.85;0.60;;;20.50;69.90;;;;;;5035179;28;20053;-74
2021/05/15 12:53:35;;;;;;;0.70;0.63;;;21.10;68.10;;;;;;5035580;28;20056;-73
2021/05/15 12:56:01;;;;;;;1.08;0.60;;;22.00;68.20;;;;;;5035782;28;20049;-73